Аэропорт: Шереметьево. Москва

ICAO: UUEE

METAR:
2021-07-28 14:30:00
UUEE 281430Z 10003MPS 070V140 8000 -RA SCT038 19/17 Q1012 R06C/290040 R06L/290051 NOSIG
METAR:
2021-07-28 10:59:00
TAF UUEE 281059Z 2812/2912 15005MPS 9999 BKN030 TX23/2912Z TN16/2901Z TEMPO 2812/2819 18010G15MPS 2100 -TSRA BKN020CB TEMPO 2819/2904 1500 -SHRA BR BKN006 BKN016CB